createdAt,value
2022-09-11T00:01:56.586Z,2.65
2022-09-11T00:04:23.547Z,2.28
2022-09-11T00:06:50.224Z,2.33
2022-09-11T00:09:16.902Z,2.40
2022-09-11T00:11:43.505Z,2.05
2022-09-11T00:14:11.501Z,2.22
2022-09-11T00:16:39.765Z,2.20
2022-09-11T00:19:07.762Z,2.20
2022-09-11T00:21:34.514Z,2.20
2022-09-11T00:24:01.371Z,2.80
2022-09-11T00:26:28.112Z,2.58
2022-09-11T00:28:55.368Z,2.42
2022-09-11T00:31:26.245Z,2.40
2022-09-11T00:33:52.886Z,2.72
2022-09-11T00:36:21.150Z,2.67
2022-09-11T00:38:48.461Z,2.20
2022-09-11T00:41:16.607Z,2.70
2022-09-11T00:43:54.157Z,2.30
2022-09-11T00:46:23.523Z,2.47
2022-09-11T00:48:50.173Z,2.45
2022-09-11T00:51:26.009Z,2.20
2022-09-11T00:53:54.349Z,2.33
2022-09-11T00:56:21.727Z,2.35
2022-09-11T00:58:49.125Z,2.25
2022-09-11T01:01:16.016Z,2.17
2022-09-11T01:03:49.882Z,2.33
2022-09-11T01:06:16.888Z,2.30
2022-09-11T01:08:46.553Z,2.13
2022-09-11T01:11:31.514Z,2.22
2022-09-11T01:14:01.170Z,2.20
2022-09-11T01:16:34.173Z,2.58
2022-09-11T01:19:05.027Z,2.30
2022-09-11T01:21:57.883Z,2.40
2022-09-11T01:24:49.817Z,2.13
2022-09-11T01:27:36.965Z,2.38
2022-09-11T01:30:10.854Z,2.13
2022-09-11T01:32:48.844Z,2.10
2022-09-11T01:35:22.110Z,2.45
2022-09-11T01:38:17.754Z,2.40
2022-09-11T01:40:52.964Z,2.47
2022-09-11T01:43:24.536Z,2.30
2022-09-11T01:45:59.508Z,2.13
2022-09-11T01:48:39.116Z,2.45
2022-09-11T01:51:15.044Z,2.10
2022-09-11T01:53:50.377Z,2.00
2022-09-11T01:56:20.168Z,2.10
2022-09-11T01:58:47.949Z,2.00
2022-09-11T02:01:18.534Z,1.88
2022-09-11T02:03:47.795Z,2.00
2022-09-11T02:06:16.818Z,2.00
2022-09-11T02:08:47.090Z,2.38
2022-09-11T02:11:18.087Z,2.22
2022-09-11T02:13:58.661Z,2.38
2022-09-11T02:16:45.269Z,2.53
2022-09-11T02:19:13.975Z,1.80
2022-09-11T02:21:40.798Z,2.90
2022-09-11T02:24:09.451Z,2.58
2022-09-11T02:26:39.618Z,2.10
2022-09-11T02:29:06.640Z,1.80
2022-09-11T02:31:35.217Z,2.30
2022-09-11T02:34:02.087Z,2.33
2022-09-11T02:36:32.094Z,1.92
2022-09-11T02:39:20.563Z,1.67
2022-09-11T02:42:07.236Z,2.20
2022-09-11T02:44:54.841Z,2.20
2022-09-11T02:47:25.179Z,2.35
2022-09-11T02:49:52.566Z,2.08
2022-09-11T02:52:40.977Z,2.00
2022-09-11T02:55:13.689Z,1.88
2022-09-11T02:57:55.118Z,2.03
2022-09-11T03:00:22.151Z,1.85
2022-09-11T03:02:49.197Z,1.90
2022-09-11T03:05:15.999Z,2.10
2022-09-11T03:07:43.145Z,1.90
2022-09-11T03:10:11.234Z,1.90
2022-09-11T03:12:38.540Z,2.70
2022-09-11T03:15:06.024Z,1.80
2022-09-11T03:17:33.087Z,2.30
2022-09-11T03:19:59.882Z,2.95
2022-09-11T03:22:26.549Z,1.75
2022-09-11T03:24:53.678Z,1.42
2022-09-11T03:27:21.814Z,2.10
2022-09-11T03:29:50.095Z,1.80
2022-09-11T03:32:16.674Z,1.60
2022-09-11T03:34:43.960Z,2.10
2022-09-11T03:37:11.217Z,1.98
2022-09-11T03:39:40.733Z,1.63
2022-09-11T03:42:07.616Z,1.90
2022-09-11T03:44:34.718Z,1.65
2022-09-11T03:47:01.443Z,1.73
2022-09-11T03:49:28.470Z,2.13
2022-09-11T03:51:55.034Z,1.85
2022-09-11T03:54:22.024Z,2.13
2022-09-11T03:56:49.991Z,1.92
2022-09-11T03:59:16.886Z,1.95
2022-09-11T04:01:47.271Z,2.10
2022-09-11T04:04:15.194Z,1.63
2022-09-11T04:06:43.819Z,1.65
2022-09-11T04:09:10.785Z,1.83
2022-09-11T04:11:40.392Z,2.10
2022-09-11T04:14:19.577Z,1.63
2022-09-11T04:16:46.292Z,2.05
2022-09-11T04:19:13.435Z,1.60
2022-09-11T04:21:45.444Z,1.98
2022-09-11T04:24:12.112Z,1.88
2022-09-11T04:26:38.777Z,1.67
2022-09-11T04:29:11.763Z,1.53
2022-09-11T04:31:41.306Z,2.08
2022-09-11T04:34:09.576Z,1.92
2022-09-11T04:36:37.121Z,2.00
2022-09-11T04:39:04.359Z,1.80
2022-09-11T04:41:31.637Z,1.40
2022-09-11T04:44:05.312Z,1.60
2022-09-11T04:46:36.799Z,1.80
2022-09-11T04:49:08.185Z,1.85
2022-09-11T04:51:36.603Z,1.90
2022-09-11T04:54:04.491Z,1.50
2022-09-11T04:56:36.244Z,1.70
2022-09-11T04:59:13.660Z,1.70
2022-09-11T05:01:44.378Z,1.50
2022-09-11T05:04:12.785Z,1.75
2022-09-11T05:06:40.499Z,1.50
2022-09-11T05:09:11.105Z,1.70
2022-09-11T05:11:39.399Z,1.85
2022-09-11T05:14:06.276Z,2.30
2022-09-11T05:16:35.912Z,1.67
2022-09-11T05:19:04.380Z,1.90
2022-09-11T05:21:33.407Z,1.30
2022-09-11T05:24:01.234Z,1.63
2022-09-11T05:26:31.502Z,1.85
2022-09-11T05:29:01.129Z,2.10
2022-09-11T05:31:32.241Z,1.65
2022-09-11T05:34:00.467Z,1.75
2022-09-11T05:36:27.942Z,1.80
2022-09-11T05:38:54.555Z,1.65
2022-09-11T05:41:21.312Z,1.38
2022-09-11T05:43:48.277Z,1.67
2022-09-11T05:46:17.084Z,1.50
2022-09-11T05:48:46.006Z,1.75
2022-09-11T05:51:18.508Z,1.88
2022-09-11T05:53:46.287Z,1.52
2022-09-11T05:56:15.548Z,2.00
2022-09-11T05:58:43.781Z,1.80
2022-09-11T06:01:12.974Z,1.80
2022-09-11T06:03:41.938Z,1.77
2022-09-11T06:06:11.955Z,2.45
2022-09-11T06:08:39.905Z,2.50
2022-09-11T06:11:07.604Z,2.30
2022-09-11T06:13:39.771Z,2.05
2022-09-11T06:16:08.842Z,2.35
2022-09-11T06:18:35.454Z,2.40
2022-09-11T06:21:05.770Z,2.33
2022-09-11T06:23:39.969Z,2.08
2022-09-11T06:26:08.947Z,2.42
2022-09-11T06:28:38.442Z,2.00
2022-09-11T06:31:06.099Z,2.58
2022-09-11T06:33:36.582Z,2.05
2022-09-11T06:36:08.044Z,2.38
2022-09-11T06:38:35.426Z,1.75
2022-09-11T06:41:05.488Z,2.38
2022-09-11T06:43:35.869Z,2.08
2022-09-11T06:46:06.399Z,2.40
2022-09-11T06:48:33.551Z,2.50
2022-09-11T06:51:04.891Z,2.22
2022-09-11T06:53:32.822Z,2.90
2022-09-11T06:56:06.882Z,2.10
2022-09-11T06:58:34.854Z,2.40
2022-09-11T07:01:03.772Z,2.55
2022-09-11T07:03:32.506Z,2.28
2022-09-11T07:06:00.977Z,2.55
2022-09-11T07:08:28.166Z,2.72
2022-09-11T07:10:55.559Z,2.65
2022-09-11T07:13:24.491Z,2.80
2022-09-11T07:15:59.801Z,3.33
2022-09-11T07:18:26.503Z,3.58
2022-09-11T07:20:53.379Z,3.72
2022-09-11T07:23:20.458Z,5.00
2022-09-11T07:25:48.518Z,4.15
2022-09-11T07:28:15.057Z,5.03
2022-09-11T07:30:41.881Z,5.00
2022-09-11T07:33:09.023Z,4.68
2022-09-11T07:35:39.237Z,4.75
2022-09-11T07:38:08.084Z,4.88
2022-09-11T07:40:38.372Z,5.28
2022-09-11T07:43:05.742Z,5.78
2022-09-11T07:45:33.101Z,6.03
2022-09-11T07:48:01.508Z,5.38
2022-09-11T07:50:29.593Z,5.55
2022-09-11T07:52:57.243Z,5.55
2022-09-11T07:55:24.985Z,7.72
2022-09-11T07:57:54.113Z,7.80
2022-09-11T08:00:22.298Z,7.45
2022-09-11T08:02:54.219Z,8.30
2022-09-11T08:05:30.211Z,8.85
2022-09-11T08:07:58.822Z,9.93
2022-09-11T08:10:27.926Z,11.15
2022-09-11T08:12:59.591Z,9.00
2022-09-11T08:15:30.555Z,9.73
2022-09-11T08:17:59.878Z,9.88
2022-09-11T08:20:26.668Z,10.57
2022-09-11T08:22:53.900Z,10.02
2022-09-11T08:25:20.423Z,9.32
2022-09-11T08:27:46.992Z,9.15
2022-09-11T08:30:17.103Z,8.60
2022-09-11T08:32:46.575Z,9.15
2022-09-11T08:35:13.279Z,8.48
2022-09-11T08:37:40.316Z,7.95
2022-09-11T08:40:08.940Z,8.25
2022-09-11T08:42:37.846Z,9.23
2022-09-11T08:45:06.669Z,9.00
2022-09-11T08:47:39.821Z,10.82
2022-09-11T08:50:15.913Z,15.20
2022-09-11T08:52:44.204Z,15.63
2022-09-11T08:55:17.507Z,17.63
2022-09-11T08:57:50.995Z,16.00
2022-09-11T09:00:21.332Z,17.65
2022-09-11T09:03:23.845Z,17.05
2022-09-11T09:05:57.693Z,16.75
2022-09-11T09:08:31.599Z,16.13
2022-09-11T09:11:08.668Z,17.77
2022-09-11T09:13:36.051Z,18.73
2022-09-11T09:16:09.876Z,17.98
2022-09-11T09:18:39.054Z,19.38
2022-09-11T09:21:09.636Z,20.05
2022-09-11T09:23:39.875Z,17.90
2022-09-11T09:26:11.891Z,17.67
2022-09-11T09:28:41.437Z,18.83
2022-09-11T09:31:10.892Z,16.65
2022-09-11T09:33:42.621Z,17.23
2022-09-11T09:36:15.289Z,17.85
2022-09-11T09:38:43.696Z,15.55
2022-09-11T09:41:28.950Z,17.70
2022-09-11T09:44:10.936Z,16.13
2022-09-11T09:46:41.640Z,17.27
2022-09-11T09:49:10.470Z,16.17
2022-09-11T09:51:37.705Z,15.55
2022-09-11T09:54:04.436Z,14.90
2022-09-11T09:56:32.038Z,15.40
2022-09-11T09:59:19.867Z,15.13
2022-09-11T10:01:48.313Z,17.80
2022-09-11T10:04:16.833Z,15.20
2022-09-11T10:06:45.485Z,16.17
2022-09-11T10:09:22.287Z,15.90
2022-09-11T10:11:53.130Z,14.88
2022-09-11T10:14:49.320Z,14.20
2022-09-11T10:17:19.607Z,14.07
2022-09-11T10:19:46.670Z,14.52
2022-09-11T10:22:32.145Z,15.23
2022-09-11T10:25:12.961Z,14.45
2022-09-11T10:27:52.081Z,14.52
2022-09-11T10:30:30.048Z,15.32
2022-09-11T10:33:03.080Z,13.88
2022-09-11T10:35:31.414Z,14.43
2022-09-11T10:38:07.323Z,13.90
2022-09-11T10:40:34.246Z,12.57
2022-09-11T10:43:00.905Z,13.98
2022-09-11T10:45:27.708Z,13.52
2022-09-11T10:47:54.284Z,13.27
2022-09-11T10:50:25.056Z,13.98
2022-09-11T10:53:10.469Z,13.18
2022-09-11T10:55:40.204Z,13.52
2022-09-11T10:58:29.656Z,13.75
2022-09-11T11:00:56.660Z,13.32
2022-09-11T11:03:27.415Z,12.68
2022-09-11T11:06:12.796Z,12.48
2022-09-11T11:08:39.548Z,12.85
2022-09-11T11:11:14.745Z,11.75
2022-09-11T11:13:50.364Z,12.57
2022-09-11T11:16:17.074Z,12.70
2022-09-11T11:18:53.420Z,12.18
2022-09-11T11:21:28.601Z,10.95
2022-09-11T11:24:09.624Z,11.55
2022-09-11T11:26:36.768Z,12.15
2022-09-11T11:29:11.345Z,13.32
2022-09-11T11:31:45.901Z,12.43
2022-09-11T11:34:25.763Z,12.18
2022-09-11T11:37:01.513Z,12.35
2022-09-11T11:39:41.109Z,11.45
2022-09-11T11:42:21.976Z,11.00
2022-09-11T11:44:54.414Z,12.88
2022-09-11T11:47:25.327Z,11.80
2022-09-11T11:49:55.043Z,11.57
2022-09-11T11:52:38.992Z,10.48
2022-09-11T11:55:23.293Z,12.15
2022-09-11T12:00:17.011Z,12.00
2022-09-11T12:02:48.830Z,11.25
2022-09-11T12:05:24.061Z,11.90
2022-09-11T12:07:51.264Z,11.32
2022-09-11T12:10:22.270Z,11.23
2022-09-11T12:12:55.430Z,11.48
2022-09-11T12:15:25.878Z,11.70
2022-09-11T12:18:00.406Z,11.43
2022-09-11T12:20:32.223Z,11.13
2022-09-11T12:22:59.295Z,10.35
2022-09-11T12:25:27.429Z,10.55
2022-09-11T12:28:09.685Z,10.27
2022-09-11T12:30:56.093Z,10.30
2022-09-11T12:33:40.947Z,10.73
2022-09-11T12:36:09.242Z,10.05
2022-09-11T12:38:38.142Z,10.75
2022-09-11T12:41:13.092Z,10.95
2022-09-11T12:43:41.306Z,10.73
2022-09-11T12:46:20.635Z,8.80
2022-09-11T12:49:05.591Z,9.23
2022-09-11T12:51:37.880Z,9.48
2022-09-11T12:54:16.127Z,9.60
2022-09-11T12:56:47.368Z,9.15
2022-09-11T12:59:21.342Z,9.57
2022-09-11T13:04:17.057Z,9.30
2022-09-11T13:06:48.847Z,9.13
2022-09-11T13:09:25.461Z,9.02
2022-09-11T13:11:53.193Z,9.40
2022-09-11T13:14:33.366Z,10.15
2022-09-11T13:17:01.369Z,8.75
2022-09-11T13:19:34.721Z,9.27
2022-09-11T13:22:01.842Z,9.25
2022-09-11T13:24:32.118Z,8.57
2022-09-11T13:27:09.596Z,8.45
2022-09-11T13:29:37.446Z,7.85
2022-09-11T13:32:08.260Z,8.20
2022-09-11T13:34:36.493Z,7.57
2022-09-11T13:37:08.124Z,9.45
2022-09-11T13:39:36.242Z,8.55
2022-09-11T13:42:03.073Z,9.10
2022-09-11T13:44:35.496Z,8.15
2022-09-11T13:47:02.048Z,7.65
2022-09-11T13:49:32.630Z,7.32
2022-09-11T13:51:59.184Z,7.78
2022-09-11T13:54:31.436Z,8.60
2022-09-11T13:56:57.978Z,7.75
2022-09-11T13:59:44.957Z,7.45
2022-09-11T14:02:34.982Z,7.65
2022-09-11T14:05:20.781Z,6.65
2022-09-11T14:07:56.597Z,8.07
2022-09-11T14:10:25.382Z,7.85
2022-09-11T14:13:12.627Z,7.70
2022-09-11T14:15:43.304Z,7.53
2022-09-11T14:18:17.153Z,7.72
2022-09-11T14:20:44.845Z,7.53
2022-09-11T14:23:15.901Z,6.93
2022-09-11T14:26:02.442Z,7.57
2022-09-11T14:28:36.834Z,6.85
2022-09-11T14:31:07.766Z,6.88
2022-09-11T14:33:34.479Z,7.72
2022-09-11T14:36:19.071Z,6.78
2022-09-11T14:38:47.584Z,7.13
2022-09-11T14:41:14.473Z,6.85
2022-09-11T14:43:41.050Z,7.63
2022-09-11T14:46:07.786Z,6.53
2022-09-11T14:48:35.088Z,8.45
2022-09-11T14:51:03.475Z,7.47
2022-09-11T14:53:33.272Z,8.05
2022-09-11T14:56:00.647Z,8.48
2022-09-11T14:58:27.994Z,8.95
2022-09-11T15:00:54.891Z,8.27
2022-09-11T15:03:22.544Z,9.75
2022-09-11T15:05:51.874Z,9.70
2022-09-11T15:08:18.494Z,8.52
2022-09-11T15:10:46.463Z,9.27
2022-09-11T15:13:13.457Z,9.52
2022-09-11T15:15:40.883Z,9.77
2022-09-11T15:18:07.960Z,9.98
2022-09-11T15:20:34.580Z,8.70
2022-09-11T15:23:01.473Z,8.93
2022-09-11T15:25:28.029Z,8.27
2022-09-11T15:27:54.756Z,8.63
2022-09-11T15:30:21.829Z,8.55
2022-09-11T15:32:49.006Z,7.68
2022-09-11T15:35:18.452Z,7.88
2022-09-11T15:37:46.828Z,7.82
2022-09-11T15:40:13.879Z,7.15
2022-09-11T15:42:40.644Z,7.78
2022-09-11T15:45:07.913Z,5.50
2022-09-11T15:47:34.404Z,6.50
2022-09-11T15:50:01.614Z,5.05
2022-09-11T15:52:29.465Z,6.72
2022-09-11T15:54:56.687Z,5.97
2022-09-11T15:57:23.425Z,4.75
2022-09-11T15:59:51.984Z,5.55
2022-09-11T16:02:20.930Z,4.80
2022-09-11T16:04:53.763Z,5.05
2022-09-11T16:07:21.009Z,4.95
2022-09-11T16:09:47.498Z,5.82
2022-09-11T16:12:17.776Z,4.00
2022-09-11T16:14:44.494Z,4.57
2022-09-11T16:17:11.456Z,4.40
2022-09-11T16:19:38.666Z,4.47
2022-09-11T16:22:05.944Z,4.78
2022-09-11T16:24:37.845Z,4.32
2022-09-11T16:27:08.215Z,3.83
2022-09-11T16:30:05.503Z,4.75
2022-09-11T16:32:28.718Z,4.72
2022-09-11T16:34:56.894Z,3.80
2022-09-11T16:37:23.528Z,3.53
2022-09-11T16:39:50.759Z,3.40
2022-09-11T16:42:21.755Z,3.58
2022-09-11T16:44:49.446Z,3.47
2022-09-11T16:47:16.635Z,3.13
2022-09-11T16:52:29.961Z,3.35
2022-09-11T16:54:56.533Z,3.88
2022-09-11T16:57:23.264Z,3.28
2022-09-11T16:59:50.958Z,3.38
2022-09-11T17:02:17.689Z,3.50
2022-09-11T17:04:44.213Z,3.40
2022-09-11T17:07:10.767Z,2.95
2022-09-11T17:09:38.786Z,3.15
2022-09-11T17:12:05.338Z,3.05
2022-09-11T17:14:32.931Z,3.30
2022-09-11T17:16:59.520Z,3.13
2022-09-11T17:19:26.097Z,3.55
2022-09-11T17:21:52.696Z,2.70
2022-09-11T17:24:21.664Z,2.63
2022-09-11T17:26:51.362Z,3.05
2022-09-11T17:29:19.498Z,2.80
2022-09-11T17:31:46.281Z,3.10
2022-09-11T17:34:14.145Z,3.05
2022-09-11T17:36:40.842Z,2.67
2022-09-11T17:39:07.353Z,3.42
2022-09-11T17:41:34.085Z,2.92
2022-09-11T17:44:00.694Z,3.10
2022-09-11T17:46:27.714Z,3.03
2022-09-11T17:48:54.334Z,3.40
2022-09-11T17:51:22.293Z,3.42
2022-09-11T17:53:50.330Z,2.55
2022-09-11T17:56:18.748Z,2.80
2022-09-11T17:58:49.378Z,3.10
2022-09-11T18:01:17.080Z,2.85
2022-09-11T18:03:44.439Z,3.22
2022-09-11T18:06:18.769Z,3.40
2022-09-11T18:08:46.388Z,3.10
2022-09-11T18:11:13.249Z,2.58
2022-09-11T18:13:40.036Z,2.78
2022-09-11T18:16:11.297Z,2.65
2022-09-11T18:18:39.417Z,3.00
2022-09-11T18:21:07.226Z,3.08
2022-09-11T18:23:35.838Z,2.58
2022-09-11T18:26:02.864Z,3.08
2022-09-11T18:28:29.938Z,2.90
2022-09-11T18:31:06.053Z,2.88
2022-09-11T18:33:32.967Z,2.58
2022-09-11T18:36:07.974Z,2.95
2022-09-11T18:38:35.057Z,3.10
2022-09-11T18:41:02.089Z,2.63
2022-09-11T18:43:28.964Z,2.65
2022-09-11T18:45:56.068Z,3.00
2022-09-11T18:48:23.106Z,3.13
2022-09-11T18:50:49.788Z,2.85
2022-09-11T18:53:17.265Z,3.45
2022-09-11T18:55:43.889Z,2.55
2022-09-11T18:58:10.700Z,3.20
2022-09-11T19:00:37.589Z,2.95
2022-09-11T19:03:04.407Z,2.92
2022-09-11T19:05:31.155Z,2.63
2022-09-11T19:08:00.195Z,2.90
2022-09-11T19:10:27.046Z,2.67
2022-09-11T19:12:54.198Z,2.70
2022-09-11T19:15:20.738Z,2.60
2022-09-11T19:17:48.893Z,2.97
2022-09-11T19:20:17.100Z,2.67
2022-09-11T19:22:44.269Z,2.92
2022-09-11T19:25:11.120Z,2.70
2022-09-11T19:27:38.120Z,3.17
2022-09-11T19:30:06.295Z,2.42
2022-09-11T19:32:33.244Z,2.47
2022-09-11T19:35:00.418Z,2.80
2022-09-11T19:37:28.367Z,2.92
2022-09-11T19:39:57.267Z,3.25
2022-09-11T19:42:26.747Z,2.50
2022-09-11T19:44:56.309Z,2.40
2022-09-11T19:47:25.027Z,2.92
2022-09-11T19:49:51.707Z,2.92
2022-09-11T19:52:18.480Z,2.63
2022-09-11T19:54:45.032Z,2.45
2022-09-11T19:57:11.581Z,2.58
2022-09-11T19:59:38.370Z,2.70
2022-09-11T20:02:04.946Z,2.53
2022-09-11T20:04:31.726Z,2.25
2022-09-11T20:06:59.769Z,2.67
2022-09-11T20:09:31.325Z,2.92
2022-09-11T20:12:00.753Z,2.33
2022-09-11T20:14:27.860Z,2.78
2022-09-11T20:16:54.487Z,2.70
2022-09-11T20:19:21.099Z,2.53
2022-09-11T20:21:47.659Z,2.97
2022-09-11T20:24:15.091Z,2.67
2022-09-11T20:26:42.109Z,2.78
2022-09-11T20:29:11.987Z,2.90
2022-09-11T20:31:46.838Z,2.40
2022-09-11T20:34:15.092Z,2.53
2022-09-11T20:36:41.613Z,2.55
2022-09-11T20:39:10.146Z,2.70
2022-09-11T20:41:37.148Z,2.60
2022-09-11T20:44:04.197Z,2.40
2022-09-11T20:46:30.993Z,2.42
2022-09-11T20:48:57.676Z,2.67
2022-09-11T20:51:24.562Z,2.38
2022-09-11T20:53:52.103Z,2.45
2022-09-11T20:56:20.641Z,2.65
2022-09-11T20:58:47.305Z,2.55
2022-09-11T21:01:15.591Z,2.42
2022-09-11T21:03:46.546Z,2.38
2022-09-11T21:06:13.302Z,2.40
2022-09-11T21:08:41.184Z,2.47
2022-09-11T21:11:08.388Z,2.50
2022-09-11T21:13:36.167Z,2.25
2022-09-11T21:16:05.410Z,2.60
2022-09-11T21:18:32.006Z,2.72
2022-09-11T21:20:58.946Z,2.70
2022-09-11T21:23:25.471Z,2.55
2022-09-11T21:25:52.819Z,2.75
2022-09-11T21:28:19.845Z,2.92
2022-09-11T21:30:46.406Z,2.58
2022-09-11T21:33:13.124Z,2.95
2022-09-11T21:35:39.689Z,2.53
2022-09-11T21:38:06.244Z,2.63
2022-09-11T21:40:33.019Z,2.90
2022-09-11T21:42:59.679Z,2.70
2022-09-11T21:45:29.265Z,2.45
2022-09-11T21:47:56.047Z,2.47
2022-09-11T21:50:22.747Z,3.00
2022-09-11T21:52:49.527Z,2.60
2022-09-11T21:55:16.267Z,2.33
2022-09-11T21:57:45.146Z,2.45
2022-09-11T22:00:12.922Z,2.67
2022-09-11T22:02:39.625Z,2.80
2022-09-11T22:05:06.506Z,2.85
2022-09-11T22:07:33.089Z,2.40
2022-09-11T22:10:03.783Z,2.65
2022-09-11T22:12:30.422Z,2.55
2022-09-11T22:14:57.054Z,2.30
2022-09-11T22:17:23.912Z,2.50
2022-09-11T22:19:50.602Z,2.30
2022-09-11T22:22:17.620Z,2.70
2022-09-11T22:24:44.162Z,2.67
2022-09-11T22:27:10.735Z,2.35
2022-09-11T22:29:37.445Z,2.83
2022-09-11T22:32:04.854Z,2.20
2022-09-11T22:34:35.533Z,2.72
2022-09-11T22:37:02.365Z,2.58
2022-09-11T22:39:29.050Z,2.53
2022-09-11T22:41:55.908Z,2.60
2022-09-11T22:44:22.594Z,3.05
2022-09-11T22:46:49.182Z,2.78
2022-09-11T22:49:15.784Z,2.45
2022-09-11T22:51:42.452Z,2.40
2022-09-11T22:54:09.138Z,2.50
2022-09-11T22:56:35.770Z,2.60
2022-09-11T22:59:02.261Z,2.85
2022-09-11T23:01:28.957Z,2.80
2022-09-11T23:03:55.562Z,2.30
2022-09-11T23:06:41.066Z,2.42
2022-09-11T23:09:09.442Z,2.53
2022-09-11T23:11:36.226Z,2.67
2022-09-11T23:14:02.901Z,2.53
2022-09-11T23:16:29.974Z,2.40
2022-09-11T23:18:57.600Z,2.38
2022-09-11T23:21:24.820Z,2.63
2022-09-11T23:23:54.563Z,2.90
2022-09-11T23:26:21.743Z,2.45
2022-09-11T23:28:48.544Z,2.63
2022-09-11T23:31:25.732Z,2.63
2022-09-11T23:33:53.864Z,2.75
2022-09-11T23:36:20.637Z,3.00
2022-09-11T23:38:47.725Z,2.47
2022-09-11T23:41:14.605Z,3.15
2022-09-11T23:43:41.337Z,2.42
2022-09-11T23:46:08.105Z,2.67
2022-09-11T23:48:34.742Z,2.28
2022-09-11T23:51:01.325Z,3.03
2022-09-11T23:53:31.133Z,2.60
2022-09-11T23:55:58.131Z,2.45
2022-09-11T23:58:24.731Z,3.13
